RYR51JQ LGKR-EGBB
Flight info
| Callsign | RYR51JQ |
|---|---|
| Flight time | 3h 0m |
| Altitude | 36000 |
| Route | OLGAT DCT AIOSA DCT SOTOV DCT USUDO DCT LIRSU DCT DENUT L610 HEMEL |
| Aircraft | B738/M-SDE2E3FGHIRWXY/LB1 |
Departure
| Time | 2026-04-28 17:29 |
|---|---|
| Airport | Corfu Ioannis Kapodistrias International Airport (LGKR) |
Arrival
| Time | 2026-04-28 20:29 |
|---|---|
| Airport | Birmingham Airport (EGBB) |
| Time | Latitude | Longitude | Altitude | Speed | Heading |
|---|---|---|---|---|---|
| 2026-04-28 16:56 | 39.60591 | 19.91377 | 17 ft | 0 kts | 79° |
| 2026-04-28 17:19 | 39.60591 | 19.91376 | 17 ft | 1 kts | 79° |
| 2026-04-28 17:19 | 39.60588 | 19.91356 | 17 ft | 3 kts | 79° |
| 2026-04-28 17:19 | 39.60584 | 19.91331 | 20 ft | 3 kts | 79° |
| 2026-04-28 17:19 | 39.60583 | 19.91307 | 21 ft | 3 kts | 112° |
| 2026-04-28 17:20 | 39.60592 | 19.91288 | 19 ft | 2 kts | 139° |
| 2026-04-28 17:20 | 39.60597 | 19.91283 | 20 ft | 2 kts | 139° |
| 2026-04-28 17:20 | 39.60609 | 19.91271 | 20 ft | 0 kts | 162° |
| 2026-04-28 17:23 | 39.60597 | 19.91261 | 20 ft | 4 kts | 237° |
| 2026-04-28 17:23 | 39.60585 | 19.91213 | 17 ft | 7 kts | 240° |
| 2026-04-28 17:23 | 39.60547 | 19.91170 | 17 ft | 8 kts | 211° |
| 2026-04-28 17:23 | 39.60481 | 19.91142 | 18 ft | 13 kts | 182° |
| 2026-04-28 17:24 | 39.60370 | 19.91168 | 19 ft | 19 kts | 168° |
| 2026-04-28 17:24 | 39.60219 | 19.91207 | 21 ft | 25 kts | 169° |
| 2026-04-28 17:24 | 39.60043 | 19.91252 | 22 ft | 26 kts | 168° |
| 2026-04-28 17:24 | 39.59852 | 19.91302 | 21 ft | 29 kts | 169° |
| 2026-04-28 17:25 | 39.59658 | 19.91353 | 18 ft | 27 kts | 168° |
| 2026-04-28 17:25 | 39.59313 | 19.91443 | 16 ft | 22 kts | 168° |
| 2026-04-28 17:25 | 39.59216 | 19.91463 | 17 ft | 10 kts | 185° |
| 2026-04-28 17:26 | 39.59167 | 19.91449 | 16 ft | 6 kts | 168° |
| 2026-04-28 17:26 | 39.59167 | 19.91495 | 16 ft | 7 kts | 15° |
| 2026-04-28 17:26 | 39.59213 | 19.91468 | 17 ft | 7 kts | 342° |
| 2026-04-28 17:26 | 39.59220 | 19.91466 | 18 ft | 0 kts | 345° |
| 2026-04-28 17:28 | 39.59247 | 19.91458 | 17 ft | 18 kts | 348° |
| 2026-04-28 17:28 | 39.60403 | 19.91158 | 18 ft | 145 kts | 348° |
| 2026-04-28 17:28 | 39.61534 | 19.90854 | 191 ft | 176 kts | 348° |
| 2026-04-28 17:29 | 39.62711 | 19.90567 | 992 ft | 169 kts | 350° |
| 2026-04-28 17:29 | 39.63849 | 19.90333 | 1795 ft | 164 kts | 350° |
| 2026-04-28 17:29 | 39.64921 | 19.89705 | 2256 ft | 182 kts | 315° |
| 2026-04-28 17:30 | 39.65617 | 19.86378 | 3243 ft | 207 kts | 269° |
| 2026-04-28 17:30 | 39.65562 | 19.82445 | 4175 ft | 231 kts | 270° |
| 2026-04-28 17:30 | 39.65562 | 19.80344 | 4903 ft | 233 kts | 276° |
| 2026-04-28 17:31 | 39.66145 | 19.78366 | 5468 ft | 244 kts | 310° |
| 2026-04-28 17:31 | 39.68634 | 19.75149 | 6737 ft | 258 kts | 314° |
| 2026-04-28 17:32 | 39.71180 | 19.71747 | 7913 ft | 275 kts | 314° |
| 2026-04-28 17:32 | 39.72548 | 19.69913 | 8371 ft | 288 kts | 314° |
| 2026-04-28 17:32 | 39.73965 | 19.68018 | 9028 ft | 293 kts | 314° |
| 2026-04-28 17:32 | 39.75373 | 19.66138 | 9775 ft | 296 kts | 314° |
| 2026-04-28 17:33 | 39.76818 | 19.64209 | 10430 ft | 299 kts | 314° |
| 2026-04-28 17:33 | 39.78279 | 19.62260 | 11149 ft | 301 kts | 314° |
| 2026-04-28 17:33 | 39.79783 | 19.60253 | 11442 ft | 320 kts | 314° |
| 2026-04-28 17:33 | 39.80836 | 19.58847 | 11561 ft | 334 kts | 314° |
| 2026-04-28 17:34 | 39.83078 | 19.55853 | 12034 ft | 352 kts | 314° |
| 2026-04-28 17:34 | 39.84795 | 19.53557 | 12752 ft | 354 kts | 314° |
| 2026-04-28 17:34 | 39.86518 | 19.51253 | 13519 ft | 356 kts | 314° |
| 2026-04-28 17:34 | 39.88215 | 19.48982 | 14235 ft | 358 kts | 314° |
| 2026-04-28 17:35 | 39.89993 | 19.46600 | 14951 ft | 359 kts | 314° |
| 2026-04-28 17:35 | 39.91838 | 19.44127 | 15685 ft | 362 kts | 313° |
| 2026-04-28 17:35 | 39.93599 | 19.41764 | 16373 ft | 364 kts | 314° |
| 2026-04-28 17:35 | 39.95374 | 19.39382 | 17076 ft | 366 kts | 314° |
| 2026-04-28 17:36 | 39.97149 | 19.36996 | 17774 ft | 369 kts | 314° |
| 2026-04-28 17:36 | 39.98945 | 19.34582 | 18456 ft | 371 kts | 314° |
| 2026-04-28 17:36 | 40.00724 | 19.32187 | 19002 ft | 374 kts | 314° |
| 2026-04-28 17:36 | 40.02537 | 19.29745 | 19550 ft | 377 kts | 314° |
| 2026-04-28 17:37 | 40.04374 | 19.27268 | 20088 ft | 381 kts | 314° |
| 2026-04-28 17:37 | 40.06224 | 19.24773 | 20632 ft | 384 kts | 314° |
| 2026-04-28 17:37 | 40.08088 | 19.22256 | 21166 ft | 387 kts | 314° |
| 2026-04-28 17:37 | 40.09975 | 19.19706 | 21691 ft | 390 kts | 314° |
| 2026-04-28 17:38 | 40.11866 | 19.17149 | 22202 ft | 394 kts | 314° |
| 2026-04-28 17:38 | 40.13778 | 19.14561 | 22711 ft | 397 kts | 314° |
| 2026-04-28 17:38 | 40.15703 | 19.11951 | 23212 ft | 400 kts | 314° |
| 2026-04-28 17:38 | 40.17655 | 19.09304 | 23673 ft | 404 kts | 314° |
| 2026-04-28 17:39 | 40.19632 | 19.06621 | 24094 ft | 406 kts | 314° |
| 2026-04-28 17:39 | 40.21594 | 19.03956 | 24526 ft | 408 kts | 314° |
| 2026-04-28 17:39 | 40.25622 | 18.98715 | 25329 ft | 413 kts | 320° |
| 2026-04-28 17:40 | 40.27885 | 18.96364 | 25733 ft | 416 kts | 322° |
| 2026-04-28 17:40 | 40.30179 | 18.94059 | 26231 ft | 415 kts | 322° |
| 2026-04-28 17:40 | 40.32465 | 18.91761 | 26750 ft | 414 kts | 322° |
| 2026-04-28 17:40 | 40.34759 | 18.89451 | 27152 ft | 416 kts | 322° |
| 2026-04-28 17:41 | 40.37063 | 18.87129 | 27481 ft | 420 kts | 322° |
| 2026-04-28 17:41 | 40.39331 | 18.84841 | 27821 ft | 423 kts | 322° |
| 2026-04-28 17:41 | 40.41246 | 18.82908 | 28121 ft | 424 kts | 322° |
| 2026-04-28 17:41 | 40.43594 | 18.80535 | 28499 ft | 426 kts | 322° |
| 2026-04-28 17:42 | 40.45952 | 18.78150 | 28919 ft | 427 kts | 322° |
| 2026-04-28 17:42 | 40.47507 | 18.76575 | 29154 ft | 428 kts | 322° |
| 2026-04-28 17:42 | 40.50680 | 18.73360 | 29538 ft | 432 kts | 322° |
| 2026-04-28 17:42 | 40.53068 | 18.70937 | 29864 ft | 435 kts | 322° |
| 2026-04-28 17:43 | 40.55465 | 18.68504 | 30178 ft | 436 kts | 322° |
| 2026-04-28 17:43 | 40.57868 | 18.66061 | 30550 ft | 435 kts | 322° |
| 2026-04-28 17:43 | 40.60256 | 18.63632 | 30978 ft | 433 kts | 322° |
| 2026-04-28 17:43 | 40.62604 | 18.61241 | 31380 ft | 431 kts | 322° |
| 2026-04-28 17:44 | 40.64976 | 18.58823 | 31729 ft | 431 kts | 322° |
| 2026-04-28 17:44 | 40.67346 | 18.56406 | 32059 ft | 430 kts | 322° |
| 2026-04-28 17:44 | 40.69710 | 18.53993 | 32469 ft | 428 kts | 321° |
| 2026-04-28 17:44 | 40.71265 | 18.52404 | 32793 ft | 426 kts | 321° |
| 2026-04-28 17:45 | 40.73605 | 18.50011 | 33212 ft | 423 kts | 321° |
| 2026-04-28 17:45 | 40.75932 | 18.47629 | 33528 ft | 423 kts | 321° |
| 2026-04-28 17:45 | 40.78256 | 18.45249 | 33816 ft | 424 kts | 321° |
| 2026-04-28 17:45 | 40.81347 | 18.42078 | 34203 ft | 423 kts | 321° |
| 2026-04-28 17:46 | 40.82916 | 18.40467 | 34367 ft | 423 kts | 321° |
| 2026-04-28 17:46 | 40.85211 | 18.38110 | 34625 ft | 422 kts | 321° |
| 2026-04-28 17:46 | 40.87523 | 18.35733 | 34887 ft | 420 kts | 321° |
| 2026-04-28 17:46 | 40.89822 | 18.33367 | 35153 ft | 418 kts | 321° |
| 2026-04-28 17:47 | 40.92112 | 18.31009 | 35401 ft | 416 kts | 321° |
| 2026-04-28 17:47 | 40.94394 | 18.28656 | 35656 ft | 415 kts | 321° |
| 2026-04-28 17:47 | 40.96666 | 18.26312 | 35905 ft | 413 kts | 320° |
| 2026-04-28 17:47 | 40.98172 | 18.24756 | 36048 ft | 413 kts | 320° |
| 2026-04-28 17:48 | 41.01221 | 18.21603 | 36044 ft | 417 kts | 320° |
| 2026-04-28 17:48 | 41.05784 | 18.16880 | 36040 ft | 414 kts | 320° |
| 2026-04-28 17:49 | 41.10287 | 18.12211 | 36045 ft | 411 kts | 320° |
| 2026-04-28 17:49 | 41.14787 | 18.07536 | 36049 ft | 409 kts | 320° |
| 2026-04-28 17:50 | 41.19264 | 18.02876 | 36065 ft | 408 kts | 320° |
| 2026-04-28 17:50 | 41.23731 | 17.98219 | 36047 ft | 408 kts | 320° |
| 2026-04-28 17:51 | 41.28163 | 17.93589 | 36049 ft | 408 kts | 320° |
| 2026-04-28 17:51 | 41.32626 | 17.88920 | 36049 ft | 408 kts | 320° |
| 2026-04-28 17:52 | 41.37093 | 17.84237 | 36047 ft | 409 kts | 320° |
| 2026-04-28 17:52 | 41.43791 | 17.77200 | 36047 ft | 411 kts | 320° |
| 2026-04-28 17:53 | 41.48279 | 17.72475 | 36042 ft | 412 kts | 320° |
| 2026-04-28 17:53 | 41.52782 | 17.67724 | 36049 ft | 412 kts | 320° |
| 2026-04-28 17:54 | 41.57286 | 17.62965 | 36047 ft | 413 kts | 320° |
| 2026-04-28 17:54 | 41.61800 | 17.58185 | 36043 ft | 414 kts | 320° |
| 2026-04-28 17:55 | 41.66317 | 17.53394 | 36054 ft | 414 kts | 320° |
| 2026-04-28 17:55 | 41.70803 | 17.48627 | 36046 ft | 414 kts | 320° |
| 2026-04-28 17:56 | 41.75301 | 17.43839 | 36044 ft | 413 kts | 320° |
| 2026-04-28 17:56 | 41.79789 | 17.39053 | 36042 ft | 411 kts | 320° |
| 2026-04-28 17:57 | 41.84258 | 17.34278 | 36044 ft | 410 kts | 320° |
| 2026-04-28 17:57 | 41.88710 | 17.29512 | 36048 ft | 408 kts | 320° |
| 2026-04-28 17:58 | 41.93142 | 17.24759 | 36061 ft | 408 kts | 319° |
| 2026-04-28 17:58 | 41.97548 | 17.20024 | 36047 ft | 407 kts | 319° |
| 2026-04-28 17:59 | 42.01991 | 17.15242 | 36046 ft | 406 kts | 319° |
| 2026-04-28 17:59 | 42.06395 | 17.10492 | 36049 ft | 406 kts | 319° |
| 2026-04-28 18:00 | 42.10771 | 17.05765 | 36051 ft | 405 kts | 319° |
| 2026-04-28 18:00 | 42.15172 | 17.01002 | 36044 ft | 405 kts | 319° |
| 2026-04-28 18:01 | 42.19576 | 16.96227 | 36056 ft | 406 kts | 319° |
| 2026-04-28 18:01 | 42.23981 | 16.91441 | 36049 ft | 406 kts | 319° |
| 2026-04-28 18:02 | 42.28388 | 16.86645 | 36049 ft | 407 kts | 319° |
| 2026-04-28 18:02 | 42.32760 | 16.81877 | 36049 ft | 407 kts | 319° |
| 2026-04-28 18:03 | 42.37172 | 16.77058 | 36049 ft | 407 kts | 319° |
| 2026-04-28 18:03 | 42.41577 | 16.72237 | 36060 ft | 407 kts | 319° |
| 2026-04-28 18:04 | 42.45981 | 16.67409 | 36041 ft | 407 kts | 319° |
| 2026-04-28 18:04 | 42.50382 | 16.62575 | 36046 ft | 406 kts | 319° |
| 2026-04-28 18:05 | 42.54027 | 16.58564 | 36049 ft | 406 kts | 319° |
| 2026-04-28 18:05 | 42.59126 | 16.52943 | 36047 ft | 406 kts | 319° |
| 2026-04-28 18:06 | 42.63495 | 16.48116 | 36064 ft | 405 kts | 319° |
| 2026-04-28 18:06 | 42.67870 | 16.43275 | 36051 ft | 405 kts | 319° |
| 2026-04-28 18:07 | 42.72236 | 16.38434 | 36049 ft | 405 kts | 319° |
| 2026-04-28 18:07 | 42.76606 | 16.33579 | 36041 ft | 405 kts | 319° |
| 2026-04-28 18:08 | 42.80965 | 16.28728 | 36046 ft | 404 kts | 319° |
| 2026-04-28 18:08 | 42.85320 | 16.23872 | 36048 ft | 404 kts | 319° |
| 2026-04-28 18:09 | 42.89666 | 16.19017 | 36057 ft | 404 kts | 319° |
| 2026-04-28 18:09 | 42.93991 | 16.14176 | 36044 ft | 404 kts | 319° |
| 2026-04-28 18:10 | 42.98364 | 16.09273 | 36043 ft | 404 kts | 319° |
| 2026-04-28 18:10 | 43.02675 | 16.04429 | 36049 ft | 404 kts | 319° |
| 2026-04-28 18:11 | 43.07021 | 15.99538 | 36051 ft | 404 kts | 319° |
| 2026-04-28 18:11 | 43.11365 | 15.94639 | 36060 ft | 404 kts | 319° |
| 2026-04-28 18:12 | 43.15701 | 15.89740 | 36045 ft | 404 kts | 318° |
| 2026-04-28 18:12 | 43.20035 | 15.84833 | 36044 ft | 404 kts | 318° |
| 2026-04-28 18:13 | 43.24336 | 15.79955 | 36046 ft | 404 kts | 318° |
| 2026-04-28 18:13 | 43.28659 | 15.75043 | 36042 ft | 404 kts | 318° |
| 2026-04-28 18:14 | 43.32983 | 15.70119 | 36041 ft | 404 kts | 318° |
| 2026-04-28 18:14 | 43.37308 | 15.65187 | 36040 ft | 404 kts | 318° |
| 2026-04-28 18:15 | 43.41633 | 15.60244 | 36034 ft | 404 kts | 318° |
| 2026-04-28 18:15 | 43.45947 | 15.55303 | 36036 ft | 403 kts | 318° |
| 2026-04-28 18:16 | 43.50258 | 15.50357 | 36040 ft | 403 kts | 318° |
| 2026-04-28 18:16 | 43.54543 | 15.45433 | 36038 ft | 403 kts | 318° |
| 2026-04-28 18:17 | 43.58851 | 15.40471 | 36047 ft | 403 kts | 318° |
| 2026-04-28 18:17 | 43.63156 | 15.35503 | 36037 ft | 403 kts | 318° |
| 2026-04-28 18:18 | 43.67454 | 15.30534 | 36035 ft | 403 kts | 318° |
| 2026-04-28 18:18 | 43.71020 | 15.26404 | 36026 ft | 402 kts | 318° |
| 2026-04-28 18:19 | 43.76033 | 15.20586 | 36038 ft | 402 kts | 318° |
| 2026-04-28 18:19 | 43.80318 | 15.15603 | 36042 ft | 402 kts | 318° |
| 2026-04-28 18:20 | 43.84598 | 15.10617 | 36041 ft | 402 kts | 318° |
| 2026-04-28 18:20 | 43.88877 | 15.05621 | 36044 ft | 402 kts | 318° |
| 2026-04-28 18:21 | 43.93137 | 15.00639 | 36048 ft | 403 kts | 317° |
| 2026-04-28 18:21 | 43.97417 | 14.95623 | 36047 ft | 403 kts | 317° |
| 2026-04-28 18:22 | 44.01701 | 14.90592 | 36049 ft | 403 kts | 317° |
| 2026-04-28 18:22 | 44.05987 | 14.85550 | 36049 ft | 404 kts | 317° |
| 2026-04-28 18:23 | 44.10274 | 14.80495 | 36040 ft | 404 kts | 317° |
| 2026-04-28 18:23 | 44.14565 | 14.75428 | 36041 ft | 404 kts | 317° |
| 2026-04-28 18:24 | 44.18130 | 14.71209 | 36038 ft | 404 kts | 317° |
| 2026-04-28 18:24 | 44.23110 | 14.65305 | 36038 ft | 404 kts | 317° |
| 2026-04-28 18:25 | 44.27384 | 14.60226 | 36044 ft | 404 kts | 317° |
| 2026-04-28 18:26 | 44.33800 | 14.52584 | 36039 ft | 403 kts | 317° |
| 2026-04-28 18:26 | 44.38043 | 14.47517 | 36036 ft | 403 kts | 317° |
| 2026-04-28 18:27 | 44.42299 | 14.42425 | 36032 ft | 402 kts | 317° |
| 2026-04-28 18:27 | 44.46553 | 14.37324 | 36029 ft | 402 kts | 317° |
| 2026-04-28 18:28 | 44.50798 | 14.32226 | 36041 ft | 402 kts | 317° |
| 2026-04-28 18:28 | 44.55009 | 14.27157 | 36031 ft | 401 kts | 317° |
| 2026-04-28 18:29 | 44.59242 | 14.22051 | 36032 ft | 401 kts | 317° |
| 2026-04-28 18:29 | 44.63472 | 14.16940 | 36030 ft | 401 kts | 316° |
| 2026-04-28 18:30 | 44.67694 | 14.11828 | 36031 ft | 400 kts | 316° |
| 2026-04-28 18:30 | 44.71913 | 14.06709 | 36048 ft | 400 kts | 316° |
| 2026-04-28 18:31 | 44.75417 | 14.02450 | 36046 ft | 400 kts | 316° |
| 2026-04-28 18:31 | 44.80313 | 13.96487 | 36048 ft | 400 kts | 316° |
| 2026-04-28 18:32 | 44.83840 | 13.92183 | 36051 ft | 400 kts | 316° |
| 2026-04-28 18:32 | 44.88026 | 13.87064 | 36049 ft | 400 kts | 316° |
| 2026-04-28 18:33 | 44.92236 | 13.81907 | 36044 ft | 400 kts | 316° |
| 2026-04-28 18:33 | 44.96441 | 13.76745 | 36051 ft | 401 kts | 316° |
| 2026-04-28 18:34 | 45.00644 | 13.71575 | 36030 ft | 400 kts | 316° |
| 2026-04-28 18:34 | 45.04843 | 13.66400 | 36031 ft | 400 kts | 316° |
| 2026-04-28 18:35 | 45.09012 | 13.61251 | 36034 ft | 400 kts | 316° |
| 2026-04-28 18:35 | 45.13207 | 13.56060 | 36033 ft | 400 kts | 316° |
| 2026-04-28 18:36 | 45.17393 | 13.50869 | 36056 ft | 399 kts | 316° |
| 2026-04-28 18:36 | 45.21571 | 13.45678 | 36041 ft | 399 kts | 316° |
| 2026-04-28 18:37 | 45.25750 | 13.40474 | 36035 ft | 399 kts | 316° |
| 2026-04-28 18:37 | 45.29887 | 13.35313 | 36039 ft | 398 kts | 316° |
| 2026-04-28 18:38 | 45.34044 | 13.30117 | 36038 ft | 398 kts | 315° |
| 2026-04-28 18:38 | 45.38197 | 13.24914 | 36034 ft | 397 kts | 315° |
| 2026-04-28 18:39 | 45.42339 | 13.19715 | 36046 ft | 397 kts | 315° |
| 2026-04-28 18:39 | 45.46480 | 13.14506 | 36036 ft | 397 kts | 315° |
| 2026-04-28 18:40 | 45.50619 | 13.09290 | 36033 ft | 397 kts | 315° |
| 2026-04-28 18:40 | 45.54728 | 13.04099 | 36034 ft | 396 kts | 315° |
| 2026-04-28 18:41 | 45.58858 | 12.98873 | 36030 ft | 396 kts | 315° |
| 2026-04-28 18:41 | 45.62982 | 12.93644 | 36030 ft | 396 kts | 315° |
| 2026-04-28 18:42 | 45.67103 | 12.88406 | 36034 ft | 396 kts | 315° |
| 2026-04-28 18:42 | 45.71230 | 12.83152 | 36033 ft | 396 kts | 315° |
| 2026-04-28 18:43 | 45.75322 | 12.77930 | 36034 ft | 396 kts | 315° |
| 2026-04-28 18:43 | 45.79439 | 12.72667 | 36032 ft | 396 kts | 315° |
| 2026-04-28 18:44 | 45.83553 | 12.67395 | 36036 ft | 396 kts | 315° |
| 2026-04-28 18:44 | 45.89722 | 12.59471 | 36054 ft | 397 kts | 315° |
| 2026-04-28 18:45 | 45.93830 | 12.54180 | 36046 ft | 396 kts | 314° |
| 2026-04-28 18:45 | 45.97937 | 12.48880 | 36044 ft | 396 kts | 314° |
| 2026-04-28 18:46 | 46.02034 | 12.43581 | 36019 ft | 395 kts | 315° |
| 2026-04-28 18:46 | 46.06107 | 12.38303 | 36040 ft | 394 kts | 314° |
| 2026-04-28 18:47 | 46.10184 | 12.33009 | 36038 ft | 394 kts | 314° |
| 2026-04-28 18:47 | 46.14248 | 12.27721 | 36047 ft | 393 kts | 314° |
| 2026-04-28 18:48 | 46.18309 | 12.22424 | 36043 ft | 394 kts | 314° |
| 2026-04-28 18:48 | 46.22350 | 12.17143 | 36049 ft | 393 kts | 315° |
| 2026-04-28 18:49 | 46.25718 | 12.12735 | 36072 ft | 394 kts | 314° |
| 2026-04-28 18:49 | 46.30474 | 12.06494 | 36062 ft | 395 kts | 314° |
| 2026-04-28 18:50 | 46.34518 | 12.01178 | 36087 ft | 394 kts | 314° |
| 2026-04-28 18:50 | 46.38561 | 11.95851 | 36053 ft | 393 kts | 314° |
| 2026-04-28 18:51 | 46.42598 | 11.90520 | 36088 ft | 392 kts | 314° |
| 2026-04-28 18:51 | 46.46612 | 11.85208 | 36091 ft | 391 kts | 314° |
| 2026-04-28 18:52 | 46.50632 | 11.79877 | 36089 ft | 392 kts | 314° |
| 2026-04-28 18:52 | 46.54667 | 11.74515 | 36068 ft | 393 kts | 314° |
| 2026-04-28 18:53 | 46.58679 | 11.69172 | 36099 ft | 394 kts | 314° |
| 2026-04-28 18:53 | 46.62721 | 11.63779 | 36058 ft | 394 kts | 314° |
| 2026-04-28 18:54 | 46.66760 | 11.58378 | 36064 ft | 393 kts | 314° |
| 2026-04-28 18:54 | 46.70781 | 11.52992 | 36058 ft | 393 kts | 314° |
| 2026-04-28 18:55 | 46.74121 | 11.48507 | 36074 ft | 392 kts | 314° |
| 2026-04-28 18:55 | 46.78792 | 11.42220 | 36059 ft | 392 kts | 314° |
| 2026-04-28 18:56 | 46.82792 | 11.36826 | 36069 ft | 391 kts | 314° |
| 2026-04-28 18:56 | 46.86782 | 11.31432 | 36065 ft | 389 kts | 313° |
| 2026-04-28 18:57 | 46.90793 | 11.26112 | 36024 ft | 390 kts | 318° |
| 2026-04-28 18:57 | 46.95450 | 11.21985 | 36081 ft | 396 kts | 330° |
| 2026-04-28 18:58 | 47.00646 | 11.18925 | 36068 ft | 407 kts | 333° |
| 2026-04-28 18:58 | 47.05953 | 11.15962 | 36029 ft | 411 kts | 334° |
| 2026-04-28 18:59 | 47.11312 | 11.12997 | 36052 ft | 412 kts | 334° |
| 2026-04-28 18:59 | 47.16704 | 11.10018 | 36040 ft | 414 kts | 334° |
| 2026-04-28 19:00 | 47.22057 | 11.07055 | 36027 ft | 404 kts | 334° |
| 2026-04-28 19:00 | 47.27252 | 11.04056 | 36059 ft | 397 kts | 326° |
| 2026-04-28 19:01 | 47.31477 | 10.99099 | 36047 ft | 388 kts | 308° |
| 2026-04-28 19:01 | 47.35032 | 10.93128 | 36053 ft | 388 kts | 308° |
| 2026-04-28 19:02 | 47.38602 | 10.87140 | 36046 ft | 389 kts | 308° |
| 2026-04-28 19:02 | 47.42194 | 10.81140 | 36057 ft | 389 kts | 308° |
| 2026-04-28 19:03 | 47.45765 | 10.75181 | 36066 ft | 390 kts | 308° |
| 2026-04-28 19:03 | 47.49364 | 10.69166 | 36067 ft | 391 kts | 308° |
| 2026-04-28 19:04 | 47.52969 | 10.63131 | 36085 ft | 392 kts | 308° |
| 2026-04-28 19:04 | 47.56575 | 10.57078 | 36066 ft | 392 kts | 308° |
| 2026-04-28 19:05 | 47.60176 | 10.51022 | 36053 ft | 391 kts | 308° |
| 2026-04-28 19:05 | 47.63766 | 10.44969 | 36063 ft | 390 kts | 308° |
| 2026-04-28 19:06 | 47.66747 | 10.39933 | 36061 ft | 390 kts | 308° |
| 2026-04-28 19:06 | 47.70904 | 10.32894 | 36059 ft | 390 kts | 308° |
| 2026-04-28 19:07 | 47.74479 | 10.26826 | 36056 ft | 389 kts | 308° |
| 2026-04-28 19:07 | 47.78041 | 10.20765 | 36069 ft | 389 kts | 308° |
| 2026-04-28 19:08 | 47.81597 | 10.14700 | 36086 ft | 389 kts | 308° |
| 2026-04-28 19:08 | 47.85152 | 10.08625 | 36089 ft | 389 kts | 308° |
| 2026-04-28 19:09 | 47.88701 | 10.02546 | 36091 ft | 389 kts | 308° |
| 2026-04-28 19:09 | 47.92223 | 9.96498 | 36086 ft | 389 kts | 308° |
| 2026-04-28 19:10 | 47.95774 | 9.90387 | 36080 ft | 389 kts | 308° |
| 2026-04-28 19:10 | 47.99305 | 9.84297 | 36085 ft | 390 kts | 308° |
| 2026-04-28 19:11 | 48.02858 | 9.78155 | 36093 ft | 390 kts | 307° |
| 2026-04-28 19:11 | 48.06410 | 9.72001 | 36087 ft | 391 kts | 307° |
| 2026-04-28 19:12 | 48.10004 | 9.65951 | 36087 ft | 393 kts | 311° |
| 2026-04-28 19:12 | 48.13928 | 9.60242 | 36086 ft | 394 kts | 313° |
| 2026-04-28 19:13 | 48.17895 | 9.54575 | 36083 ft | 394 kts | 313° |
| 2026-04-28 19:13 | 48.21847 | 9.48886 | 36077 ft | 394 kts | 312° |
| 2026-04-28 19:14 | 48.25797 | 9.43156 | 36064 ft | 394 kts | 312° |
| 2026-04-28 19:14 | 48.29733 | 9.37420 | 36074 ft | 394 kts | 312° |
| 2026-04-28 19:15 | 48.33640 | 9.31711 | 36071 ft | 394 kts | 312° |
| 2026-04-28 19:15 | 48.36266 | 9.27865 | 36065 ft | 394 kts | 312° |
| 2026-04-28 19:16 | 48.41480 | 9.20213 | 36069 ft | 392 kts | 312° |
| 2026-04-28 19:16 | 48.45388 | 9.14463 | 36065 ft | 392 kts | 312° |
| 2026-04-28 19:17 | 48.49281 | 9.08720 | 36051 ft | 391 kts | 312° |
| 2026-04-28 19:17 | 48.52513 | 9.03944 | 36085 ft | 391 kts | 312° |
| 2026-04-28 19:18 | 48.57032 | 8.97249 | 36090 ft | 391 kts | 312° |
| 2026-04-28 19:18 | 48.60310 | 8.92382 | 36088 ft | 392 kts | 312° |
| 2026-04-28 19:19 | 48.64154 | 8.86662 | 36085 ft | 393 kts | 311° |
| 2026-04-28 19:19 | 48.68051 | 8.80851 | 36085 ft | 393 kts | 311° |
| 2026-04-28 19:20 | 48.71952 | 8.75021 | 36080 ft | 394 kts | 311° |
| 2026-04-28 19:20 | 48.75860 | 8.69166 | 36110 ft | 395 kts | 311° |
| 2026-04-28 19:21 | 48.79743 | 8.63335 | 36096 ft | 396 kts | 311° |
| 2026-04-28 19:21 | 48.83658 | 8.57444 | 36094 ft | 396 kts | 311° |
| 2026-04-28 19:22 | 48.86940 | 8.52494 | 36090 ft | 397 kts | 311° |
| 2026-04-28 19:22 | 48.91498 | 8.45604 | 36090 ft | 397 kts | 311° |
| 2026-04-28 19:23 | 48.95411 | 8.39673 | 36086 ft | 397 kts | 311° |
| 2026-04-28 19:23 | 48.99321 | 8.33734 | 36082 ft | 397 kts | 311° |
| 2026-04-28 19:24 | 49.03223 | 8.27792 | 36084 ft | 396 kts | 311° |
| 2026-04-28 19:24 | 49.07118 | 8.21848 | 36088 ft | 395 kts | 311° |
| 2026-04-28 19:25 | 49.11001 | 8.15907 | 36088 ft | 395 kts | 311° |
| 2026-04-28 19:25 | 49.14871 | 8.09973 | 36088 ft | 394 kts | 311° |
| 2026-04-28 19:26 | 49.18712 | 8.04068 | 36092 ft | 393 kts | 311° |
| 2026-04-28 19:26 | 49.22562 | 7.98136 | 36094 ft | 393 kts | 311° |
| 2026-04-28 19:27 | 49.26417 | 7.92183 | 36112 ft | 394 kts | 310° |
| 2026-04-28 19:27 | 49.30283 | 7.86196 | 36113 ft | 395 kts | 310° |
| 2026-04-28 19:28 | 49.34159 | 7.80182 | 36116 ft | 397 kts | 310° |
| 2026-04-28 19:28 | 49.38037 | 7.74150 | 36104 ft | 399 kts | 310° |
| 2026-04-28 19:29 | 49.41295 | 7.69073 | 36107 ft | 400 kts | 310° |
| 2026-04-28 19:29 | 49.45869 | 7.61925 | 36093 ft | 402 kts | 310° |
| 2026-04-28 19:30 | 49.49775 | 7.55806 | 36101 ft | 402 kts | 310° |
| 2026-04-28 19:30 | 49.53700 | 7.49641 | 36122 ft | 404 kts | 310° |
| 2026-04-28 19:31 | 49.57633 | 7.43448 | 36135 ft | 404 kts | 310° |
| 2026-04-28 19:31 | 49.61573 | 7.37231 | 36136 ft | 405 kts | 310° |
| 2026-04-28 19:32 | 49.65512 | 7.31000 | 36146 ft | 405 kts | 310° |
| 2026-04-28 19:32 | 49.69419 | 7.24802 | 36132 ft | 406 kts | 310° |
| 2026-04-28 19:33 | 49.73370 | 7.18522 | 36123 ft | 406 kts | 310° |
| 2026-04-28 19:33 | 49.77308 | 7.12243 | 36144 ft | 407 kts | 310° |
| 2026-04-28 19:34 | 49.81254 | 7.05937 | 36139 ft | 408 kts | 310° |
| 2026-04-28 19:34 | 49.85217 | 6.99590 | 36151 ft | 410 kts | 310° |
| 2026-04-28 19:35 | 49.89153 | 6.93269 | 36142 ft | 411 kts | 310° |
| 2026-04-28 19:35 | 49.93148 | 6.86836 | 36127 ft | 412 kts | 310° |
| 2026-04-28 19:36 | 49.97104 | 6.80452 | 36121 ft | 413 kts | 310° |
| 2026-04-28 19:36 | 50.01087 | 6.74006 | 36135 ft | 413 kts | 311° |
| 2026-04-28 19:37 | 50.04402 | 6.68628 | 36135 ft | 415 kts | 311° |
| 2026-04-28 19:37 | 50.09069 | 6.61039 | 36124 ft | 416 kts | 311° |
| 2026-04-28 19:38 | 50.13073 | 6.54510 | 36130 ft | 416 kts | 311° |
| 2026-04-28 19:38 | 50.17082 | 6.47957 | 36133 ft | 417 kts | 311° |
| 2026-04-28 19:39 | 50.20562 | 6.40873 | 36135 ft | 413 kts | 299° |
| 2026-04-28 19:39 | 50.23554 | 6.33191 | 36133 ft | 413 kts | 298° |
| 2026-04-28 19:40 | 50.26533 | 6.25503 | 36156 ft | 414 kts | 300° |
| 2026-04-28 19:40 | 50.29538 | 6.17795 | 36153 ft | 415 kts | 300° |
| 2026-04-28 19:41 | 50.32554 | 6.10077 | 36150 ft | 416 kts | 300° |
| 2026-04-28 19:41 | 50.35567 | 6.02352 | 36169 ft | 416 kts | 300° |
| 2026-04-28 19:42 | 50.38563 | 5.94651 | 36158 ft | 417 kts | 300° |
| 2026-04-28 19:42 | 50.41070 | 5.88187 | 36172 ft | 418 kts | 300° |
| 2026-04-28 19:43 | 50.44600 | 5.79058 | 36165 ft | 419 kts | 300° |
| 2026-04-28 19:43 | 50.47541 | 5.71153 | 36175 ft | 420 kts | 296° |
| 2026-04-28 19:44 | 50.50128 | 5.62928 | 36173 ft | 420 kts | 294° |
| 2026-04-28 19:44 | 50.52649 | 5.54635 | 36164 ft | 422 kts | 295° |
| 2026-04-28 19:45 | 50.55207 | 5.46325 | 36168 ft | 423 kts | 296° |
| 2026-04-28 19:45 | 50.57775 | 5.38048 | 36181 ft | 424 kts | 296° |
| 2026-04-28 19:46 | 50.60369 | 5.29692 | 36174 ft | 425 kts | 296° |
| 2026-04-28 19:46 | 50.62963 | 5.21312 | 36185 ft | 426 kts | 296° |
| 2026-04-28 19:47 | 50.65557 | 5.12904 | 36174 ft | 427 kts | 296° |
| 2026-04-28 19:47 | 50.68133 | 5.04520 | 36186 ft | 428 kts | 296° |
| 2026-04-28 19:48 | 50.70730 | 4.96044 | 36199 ft | 430 kts | 296° |
| 2026-04-28 19:48 | 50.73332 | 4.87517 | 36184 ft | 432 kts | 296° |
| 2026-04-28 19:49 | 50.75934 | 4.78962 | 36191 ft | 433 kts | 295° |
| 2026-04-28 19:49 | 50.78543 | 4.70354 | 36193 ft | 434 kts | 296° |
| 2026-04-28 19:50 | 50.82476 | 4.57321 | 36202 ft | 448 kts | 296° |
| 2026-04-28 19:51 | 50.85178 | 4.48329 | 36190 ft | 453 kts | 296° |
| 2026-04-28 19:51 | 50.87865 | 4.39342 | 36174 ft | 449 kts | 297° |
| 2026-04-28 19:52 | 50.90516 | 4.30447 | 36193 ft | 444 kts | 296° |
| 2026-04-28 19:52 | 50.93146 | 4.21593 | 36176 ft | 443 kts | 297° |
| 2026-04-28 19:53 | 50.95764 | 4.12748 | 36185 ft | 442 kts | 296° |
| 2026-04-28 19:53 | 50.98376 | 4.03891 | 36195 ft | 443 kts | 296° |
| 2026-04-28 19:54 | 51.00984 | 3.95016 | 36184 ft | 444 kts | 296° |
| 2026-04-28 19:54 | 51.03577 | 3.86156 | 36182 ft | 445 kts | 296° |
| 2026-04-28 19:55 | 51.06182 | 3.77219 | 36180 ft | 446 kts | 296° |
| 2026-04-28 19:55 | 51.08790 | 3.68244 | 36181 ft | 447 kts | 296° |
| 2026-04-28 19:56 | 51.11401 | 3.59223 | 36193 ft | 449 kts | 296° |
| 2026-04-28 19:56 | 51.14005 | 3.50191 | 36196 ft | 450 kts | 296° |
| 2026-04-28 19:57 | 51.16611 | 3.41115 | 36186 ft | 451 kts | 295° |
| 2026-04-28 19:57 | 51.19218 | 3.32005 | 36204 ft | 451 kts | 295° |
| 2026-04-28 19:58 | 51.21799 | 3.22947 | 36186 ft | 451 kts | 296° |
| 2026-04-28 19:58 | 51.24394 | 3.13810 | 36191 ft | 452 kts | 295° |
| 2026-04-28 19:59 | 51.26984 | 3.04652 | 36190 ft | 452 kts | 295° |
| 2026-04-28 19:59 | 51.29564 | 2.95491 | 36191 ft | 452 kts | 295° |
| 2026-04-28 20:00 | 51.32143 | 2.86302 | 36174 ft | 453 kts | 296° |
| 2026-04-28 20:00 | 51.34716 | 2.77084 | 36208 ft | 454 kts | 296° |
| 2026-04-28 20:01 | 51.37227 | 2.67767 | 36214 ft | 456 kts | 295° |
| 2026-04-28 20:01 | 51.39699 | 2.58461 | 36219 ft | 458 kts | 295° |
| 2026-04-28 20:02 | 51.42202 | 2.49027 | 36232 ft | 460 kts | 295° |
| 2026-04-28 20:02 | 51.44710 | 2.39564 | 36231 ft | 461 kts | 295° |
| 2026-04-28 20:03 | 51.47220 | 2.30062 | 36228 ft | 463 kts | 295° |
| 2026-04-28 20:03 | 51.49713 | 2.20589 | 36245 ft | 464 kts | 295° |
| 2026-04-28 20:04 | 51.52220 | 2.11020 | 36251 ft | 465 kts | 295° |
| 2026-04-28 20:04 | 51.54300 | 2.03050 | 36251 ft | 465 kts | 295° |
| 2026-04-28 20:05 | 51.56797 | 1.93443 | 36241 ft | 465 kts | 295° |
| 2026-04-28 20:05 | 51.59287 | 1.83823 | 36254 ft | 466 kts | 295° |
| 2026-04-28 20:06 | 51.61769 | 1.74196 | 36277 ft | 466 kts | 295° |
| 2026-04-28 20:06 | 51.64253 | 1.64519 | 36289 ft | 467 kts | 295° |
| 2026-04-28 20:07 | 51.66712 | 1.54897 | 36273 ft | 467 kts | 295° |
| 2026-04-28 20:07 | 51.69179 | 1.45202 | 36276 ft | 468 kts | 295° |
| 2026-04-28 20:08 | 51.71640 | 1.35489 | 36288 ft | 468 kts | 295° |
| 2026-04-28 20:08 | 51.74099 | 1.25742 | 36299 ft | 469 kts | 295° |
| 2026-04-28 20:09 | 51.76554 | 1.15969 | 36302 ft | 470 kts | 295° |
| 2026-04-28 20:09 | 51.78987 | 1.06239 | 36296 ft | 470 kts | 295° |
| 2026-04-28 20:10 | 51.81442 | 0.96380 | 35707 ft | 475 kts | 295° |
| 2026-04-28 20:10 | 51.82671 | 0.91428 | 35177 ft | 475 kts | 296° |
| 2026-04-28 20:10 | 51.83900 | 0.86462 | 34629 ft | 476 kts | 296° |
| 2026-04-28 20:10 | 51.85131 | 0.81478 | 34001 ft | 478 kts | 296° |
| 2026-04-28 20:11 | 51.86366 | 0.76469 | 33356 ft | 479 kts | 296° |
| 2026-04-28 20:11 | 51.87599 | 0.71460 | 32758 ft | 480 kts | 296° |
| 2026-04-28 20:11 | 51.88833 | 0.66427 | 32155 ft | 481 kts | 296° |
| 2026-04-28 20:11 | 51.90068 | 0.61383 | 31547 ft | 482 kts | 296° |
| 2026-04-28 20:12 | 51.91304 | 0.56322 | 30935 ft | 483 kts | 296° |
| 2026-04-28 20:12 | 51.92540 | 0.51250 | 30259 ft | 485 kts | 296° |
| 2026-04-28 20:12 | 51.93762 | 0.46226 | 29467 ft | 486 kts | 296° |
| 2026-04-28 20:12 | 51.95006 | 0.41097 | 28669 ft | 489 kts | 296° |
| 2026-04-28 20:13 | 51.96254 | 0.35945 | 27906 ft | 493 kts | 296° |
| 2026-04-28 20:13 | 51.97509 | 0.30751 | 27158 ft | 496 kts | 296° |
| 2026-04-28 20:13 | 51.98755 | 0.25575 | 26429 ft | 497 kts | 295° |
| 2026-04-28 20:13 | 52.00023 | 0.20292 | 25690 ft | 492 kts | 295° |
| 2026-04-28 20:14 | 52.01237 | 0.15208 | 24984 ft | 482 kts | 295° |
| 2026-04-28 20:14 | 52.02440 | 0.10160 | 24292 ft | 473 kts | 295° |
| 2026-04-28 20:14 | 52.03622 | 0.05202 | 23569 ft | 471 kts | 295° |
| 2026-04-28 20:14 | 52.04800 | 0.00258 | 22756 ft | 468 kts | 295° |
| 2026-04-28 20:15 | 52.05969 | -0.04664 | 21991 ft | 463 kts | 295° |
| 2026-04-28 20:15 | 52.07132 | -0.09565 | 21244 ft | 465 kts | 294° |
| 2026-04-28 20:15 | 52.08291 | -0.14459 | 20493 ft | 464 kts | 294° |
| 2026-04-28 20:15 | 52.09448 | -0.19361 | 19761 ft | 463 kts | 294° |
| 2026-04-28 20:16 | 52.10598 | -0.24249 | 19017 ft | 461 kts | 293° |
| 2026-04-28 20:16 | 52.11726 | -0.29050 | 18287 ft | 457 kts | 293° |
| 2026-04-28 20:16 | 52.12834 | -0.33790 | 17720 ft | 438 kts | 293° |
| 2026-04-28 20:16 | 52.13905 | -0.38388 | 17222 ft | 420 kts | 293° |
| 2026-04-28 20:17 | 52.14922 | -0.42756 | 16772 ft | 404 kts | 293° |
| 2026-04-28 20:17 | 52.15911 | -0.47003 | 16339 ft | 399 kts | 293° |
| 2026-04-28 20:17 | 52.16890 | -0.51206 | 15907 ft | 395 kts | 293° |
| 2026-04-28 20:17 | 52.17847 | -0.55326 | 15488 ft | 391 kts | 292° |
| 2026-04-28 20:18 | 52.18807 | -0.59471 | 15066 ft | 388 kts | 292° |
| 2026-04-28 20:18 | 52.19437 | -0.62192 | 14785 ft | 386 kts | 292° |
| 2026-04-28 20:18 | 52.20698 | -0.67658 | 14225 ft | 383 kts | 292° |
| 2026-04-28 20:18 | 52.21620 | -0.71666 | 13752 ft | 380 kts | 292° |
| 2026-04-28 20:19 | 52.22545 | -0.75693 | 13301 ft | 377 kts | 291° |
| 2026-04-28 20:19 | 52.23249 | -0.79800 | 12877 ft | 375 kts | 283° |
| 2026-04-28 20:19 | 52.23742 | -0.83926 | 12457 ft | 365 kts | 281° |
| 2026-04-28 20:19 | 52.24187 | -0.87948 | 12038 ft | 353 kts | 281° |
| 2026-04-28 20:20 | 52.24612 | -0.91849 | 11580 ft | 344 kts | 281° |
| 2026-04-28 20:20 | 52.25023 | -0.95665 | 11154 ft | 337 kts | 281° |
| 2026-04-28 20:20 | 52.25423 | -0.99391 | 10703 ft | 331 kts | 281° |
| 2026-04-28 20:20 | 52.25811 | -1.03030 | 10246 ft | 326 kts | 280° |
| 2026-04-28 20:21 | 52.26200 | -1.06675 | 9839 ft | 324 kts | 281° |
| 2026-04-28 20:21 | 52.26585 | -1.10300 | 9448 ft | 324 kts | 281° |
| 2026-04-28 20:21 | 52.26967 | -1.13919 | 9064 ft | 322 kts | 281° |
| 2026-04-28 20:21 | 52.27335 | -1.17441 | 8671 ft | 315 kts | 281° |
| 2026-04-28 20:22 | 52.27700 | -1.20983 | 8250 ft | 317 kts | 279° |
| 2026-04-28 20:22 | 52.27771 | -1.24577 | 7837 ft | 315 kts | 267° |
| 2026-04-28 20:22 | 52.27636 | -1.28116 | 7529 ft | 305 kts | 266° |
| 2026-04-28 20:22 | 52.27479 | -1.31513 | 7230 ft | 296 kts | 265° |
| 2026-04-28 20:23 | 52.27318 | -1.34846 | 6860 ft | 291 kts | 265° |
| 2026-04-28 20:23 | 52.27156 | -1.38066 | 6465 ft | 287 kts | 265° |
| 2026-04-28 20:23 | 52.26988 | -1.41306 | 6058 ft | 284 kts | 265° |
| 2026-04-28 20:23 | 52.26817 | -1.44507 | 5621 ft | 283 kts | 265° |
| 2026-04-28 20:24 | 52.26650 | -1.47702 | 5164 ft | 282 kts | 269° |
| 2026-04-28 20:24 | 52.26818 | -1.50849 | 4829 ft | 274 kts | 281° |
| 2026-04-28 20:24 | 52.27206 | -1.53844 | 4509 ft | 264 kts | 298° |
| 2026-04-28 20:24 | 52.28310 | -1.56016 | 4255 ft | 241 kts | 334° |
| 2026-04-28 20:25 | 52.29743 | -1.57348 | 3946 ft | 237 kts | 335° |
| 2026-04-28 20:25 | 52.31096 | -1.58828 | 3645 ft | 230 kts | 332° |
| 2026-04-28 20:25 | 52.32390 | -1.60298 | 3313 ft | 223 kts | 333° |
| 2026-04-28 20:25 | 52.33645 | -1.61709 | 3027 ft | 213 kts | 334° |
| 2026-04-28 20:26 | 52.34847 | -1.63051 | 2727 ft | 206 kts | 335° |
| 2026-04-28 20:26 | 52.36008 | -1.64346 | 2444 ft | 199 kts | 335° |
| 2026-04-28 20:26 | 52.37139 | -1.65608 | 2199 ft | 195 kts | 336° |
| 2026-04-28 20:26 | 52.38238 | -1.66833 | 1928 ft | 191 kts | 335° |
| 2026-04-28 20:27 | 52.39302 | -1.68023 | 1674 ft | 179 kts | 336° |
| 2026-04-28 20:27 | 52.40304 | -1.69141 | 1414 ft | 168 kts | 335° |
| 2026-04-28 20:27 | 52.41231 | -1.70175 | 1215 ft | 154 kts | 335° |
| 2026-04-28 20:27 | 52.42102 | -1.71145 | 940 ft | 152 kts | 332° |
| 2026-04-28 20:28 | 52.42968 | -1.72119 | 772 ft | 150 kts | 330° |
| 2026-04-28 20:28 | 52.43843 | -1.73077 | 564 ft | 151 kts | 328° |
| 2026-04-28 20:28 | 52.44703 | -1.74047 | 364 ft | 153 kts | 330° |
| 2026-04-28 20:28 | 52.45497 | -1.74927 | 321 ft | 111 kts | 326° |
| 2026-04-28 20:29 | 52.45967 | -1.75448 | 314 ft | 56 kts | 326° |
| 2026-04-28 20:29 | 52.46121 | -1.75617 | 308 ft | 9 kts | 334° |
| 2026-04-28 20:29 | 52.46171 | -1.75574 | 309 ft | 10 kts | 54° |
| 2026-04-28 20:29 | 52.46217 | -1.75458 | 305 ft | 13 kts | 63° |
| 2026-04-28 20:30 | 52.46167 | -1.75342 | 302 ft | 14 kts | 147° |
| 2026-04-28 20:30 | 52.46082 | -1.75246 | 304 ft | 18 kts | 146° |
| 2026-04-28 20:30 | 52.45969 | -1.75123 | 306 ft | 20 kts | 145° |
| 2026-04-28 20:30 | 52.45858 | -1.74997 | 309 ft | 19 kts | 147° |
| 2026-04-28 20:31 | 52.45750 | -1.74876 | 309 ft | 18 kts | 145° |
| 2026-04-28 20:31 | 52.45646 | -1.74761 | 315 ft | 18 kts | 146° |
| 2026-04-28 20:31 | 52.45544 | -1.74649 | 322 ft | 17 kts | 146° |
| 2026-04-28 20:31 | 52.45467 | -1.74537 | 322 ft | 14 kts | 122° |
| 2026-04-28 20:32 | 52.45417 | -1.74382 | 322 ft | 16 kts | 117° |
| 2026-04-28 20:32 | 52.45367 | -1.74220 | 322 ft | 16 kts | 117° |
| 2026-04-28 20:32 | 52.45321 | -1.74073 | 322 ft | 14 kts | 116° |
| 2026-04-28 20:32 | 52.45261 | -1.73953 | 322 ft | 13 kts | 146° |
| 2026-04-28 20:33 | 52.45183 | -1.73866 | 322 ft | 11 kts | 146° |
| 2026-04-28 20:33 | 52.45129 | -1.73806 | 322 ft | 7 kts | 145° |
| 2026-04-28 20:33 | 52.45100 | -1.73750 | 322 ft | 7 kts | 111° |
| 2026-04-28 20:33 | 52.45116 | -1.73698 | 321 ft | 5 kts | 11° |
| 2026-04-28 20:34 | 52.45150 | -1.73716 | 321 ft | 5 kts | 327° |
| 2026-04-28 20:34 | 52.45170 | -1.73739 | 322 ft | 1 kts | 325° |
| 2026-04-28 20:34 | 52.45174 | -1.73744 | 322 ft | 0 kts | 325° |
| 2026-04-28 20:34 | 52.45176 | -1.73745 | 322 ft | 0 kts | 325° |
| 2026-04-28 20:35 | 52.45176 | -1.73746 | 322 ft | 0 kts | 325° |